Time;durP1;ratioP1;P1;durP2;ratioP2;P2;SDS_P1;SDS_P2;PMS_P1;PMS_P2;Temp;Humidity;BMP_temperature;BMP_pressure;BME280_temperature;BME280_humidity;BME280_pressure;Samples;Min_cycle;Max_cycle;Signal;HPM_P1;HPM_P2
2023/10/09 00:01:26;;;;;;;9.52;5.25;;;;;;;;;;5012593;28;20054;-80
2023/10/09 00:03:55;;;;;;;8.30;5.43;;;;;;;;;;5013100;28;20100;-80
2023/10/09 00:06:30;;;;;;;11.48;6.35;;;;;;;;;;5012866;28;20138;-80
2023/10/09 00:08:58;;;;;;;8.40;5.57;;;;;;;;;;5013034;28;20414;-80
2023/10/09 00:11:30;;;;;;;8.15;5.05;;;;;;;;;;5012797;28;20050;-80
2023/10/09 00:13:58;;;;;;;11.88;6.30;;;;;;;;;;5012364;28;20054;-80
2023/10/09 00:16:32;;;;;;;9.15;5.55;;;;;;;;;;5014333;28;20411;-81
2023/10/09 00:19:13;;;;;;;10.45;5.60;;;;;;;;;;5015970;28;20064;-81
2023/10/09 00:21:40;;;;;;;7.93;4.85;;;;;;;;;;5016181;28;20533;-81
2023/10/09 00:24:13;;;;;;;10.07;5.88;;;;;;;;;;5016281;28;20384;-81
2023/10/09 00:26:45;;;;;;;7.78;5.30;;;;;;;;;;5015885;28;20667;-80
2023/10/09 00:29:21;;;;;;;9.65;5.53;;;;;;;;;;5015899;28;20423;-80
2023/10/09 00:31:54;;;;;;;10.30;6.30;;;;;;;;;;5016251;28;20050;-80
2023/10/09 00:34:22;;;;;;;11.90;6.15;;;;;;;;;;5016575;28;20407;-80
2023/10/09 00:36:52;;;;;;;11.57;7.07;;;;;;;;;;5016089;28;20058;-80
2023/10/09 00:39:33;;;;;;;12.25;6.25;;;;;;;;;;5016015;28;20054;-80
2023/10/09 00:42:02;;;;;;;10.10;6.20;;;;;;;;;;5015453;28;20049;-79
2023/10/09 00:44:38;;;;;;;14.35;6.28;;;;;;;;;;5015478;28;20050;-80
2023/10/09 00:47:10;;;;;;;8.65;5.13;;;;;;;;;;5016535;28;20054;-80
2023/10/09 00:49:41;;;;;;;12.93;6.47;;;;;;;;;;5016840;28;20050;-81
2023/10/09 00:52:17;;;;;;;11.35;6.28;;;;;;;;;;5016875;28;20506;-81
2023/10/09 00:54:50;;;;;;;11.27;6.00;;;;;;;;;;5016670;28;20535;-81
2023/10/09 00:57:18;;;;;;;12.50;8.02;;;;;;;;;;5018171;28;20052;-80
2023/10/09 00:59:54;;;;;;;15.43;6.63;;;;;;;;;;5017732;28;20064;-81
2023/10/09 01:02:35;;;;;;;10.45;5.97;;;;;;;;;;5015625;28;20060;-76
2023/10/09 01:05:19;;;;;;;10.98;5.85;;;;;;;;;;5015079;28;20077;-77
2023/10/09 01:07:47;;;;;;;10.23;5.70;;;;;;;;;;5015301;28;20057;-76
2023/10/09 01:10:16;;;;;;;11.27;5.65;;;;;;;;;;5015275;28;20050;-76
2023/10/09 01:12:44;;;;;;;11.57;5.78;;;;;;;;;;5015777;28;20046;-76
2023/10/09 01:15:35;;;;;;;10.35;5.50;;;;;;;;;;5014975;28;20050;-75
2023/10/09 01:18:07;;;;;;;13.00;6.30;;;;;;;;;;5015191;28;20065;-76
2023/10/09 01:20:41;;;;;;;13.80;6.82;;;;;;;;;;5014863;28;20057;-75
2023/10/09 01:23:11;;;;;;;14.98;5.90;;;;;;;;;;5019519;28;20490;-76
2023/10/09 01:25:44;;;;;;;8.98;5.25;;;;;;;;;;5034802;28;20049;-76
2023/10/09 01:28:15;;;;;;;11.00;4.80;;;;;;;;;;5017997;28;20079;-76
2023/10/09 01:30:43;;;;;;;9.73;5.72;;;;;;;;;;5014619;28;20049;-76
2023/10/09 01:33:21;;;;;;;7.95;4.47;;;;;;;;;;5006463;28;20050;-76
2023/10/09 01:35:50;;;;;;;7.57;4.53;;;;;;;;;;5014930;28;20062;-76
2023/10/09 01:38:24;;;;;;;11.55;5.78;;;;;;;;;;5006688;28;20054;-75
2023/10/09 01:41:02;;;;;;;7.35;4.47;;;;;;;;;;5014634;28;20049;-76
2023/10/09 01:43:29;;;;;;;8.85;4.80;;;;;;;;;;5016808;28;20053;-75
2023/10/09 01:45:56;;;;;;;8.77;5.05;;;;;;;;;;5034166;28;20414;-76
2023/10/09 01:48:24;;;;;;;7.60;4.72;;;;;;;;;;5026013;28;20079;-75
2023/10/09 01:50:51;;;;;;;8.95;4.40;;;;;;;;;;5034227;28;20087;-76
2023/10/09 01:53:22;;;;;;;12.10;6.30;;;;;;;;;;5025274;28;20068;-76
2023/10/09 01:55:49;;;;;;;9.25;4.70;;;;;;;;;;5034160;28;20442;-76
2023/10/09 01:58:24;;;;;;;10.18;5.88;;;;;;;;;;5018048;28;20061;-76
2023/10/09 02:00:54;;;;;;;7.80;4.80;;;;;;;;;;5025395;28;20494;-76
2023/10/09 02:03:25;;;;;;;8.45;5.28;;;;;;;;;;5025106;28;20060;-75
2023/10/09 02:05:52;;;;;;;8.88;5.20;;;;;;;;;;5033789;28;20424;-76
2023/10/09 02:08:26;;;;;;;9.30;4.82;;;;;;;;;;5018634;28;20060;-75
2023/10/09 02:10:56;;;;;;;9.88;4.55;;;;;;;;;;5013595;28;20057;-76
2023/10/09 02:13:29;;;;;;;10.68;5.22;;;;;;;;;;5005967;28;20066;-75
2023/10/09 02:15:59;;;;;;;10.30;5.35;;;;;;;;;;5013916;28;20054;-76
2023/10/09 02:18:39;;;;;;;8.77;5.00;;;;;;;;;;5005546;28;20057;-76
2023/10/09 02:21:13;;;;;;;;;;;;;;;;;;5019261;28;20056;-76
2023/10/09 02:23:45;;;;;;;8.40;4.57;;;;;;;;;;5033277;28;19928;-75
2023/10/09 02:26:18;;;;;;;6.97;4.60;;;;;;;;;;5033311;28;20068;-76
2023/10/09 02:28:52;;;;;;;7.90;4.25;;;;;;;;;;5022289;28;20053;-76
2023/10/09 02:31:22;;;;;;;7.35;3.80;;;;;;;;;;5013583;28;20483;-76
2023/10/09 02:33:48;;;;;;;;;;;;;;;;;;5014106;28;20483;-76
2023/10/09 02:36:15;;;;;;;11.75;4.68;;;;;;;;;;5013760;28;19952;-75
2023/10/09 02:38:44;;;;;;;8.55;4.50;;;;;;;;;;5012902;28;20065;-76
2023/10/09 02:41:22;;;;;;;8.43;4.17;;;;;;;;;;5013472;28;20061;-75
2023/10/09 02:43:50;;;;;;;8.32;4.45;;;;;;;;;;5020532;28;20053;-76
2023/10/09 02:46:19;;;;;;;11.23;5.47;;;;;;;;;;5032847;28;20053;-76
2023/10/09 02:48:50;;;;;;;6.82;3.40;;;;;;;;;;5032868;28;20053;-75
2023/10/09 02:51:30;;;;;;;7.85;4.20;;;;;;;;;;5033107;28;20060;-76
2023/10/09 02:53:59;;;;;;;8.15;4.60;;;;;;;;;;5031985;28;20053;-75
2023/10/09 02:56:36;;;;;;;9.13;4.63;;;;;;;;;;5032587;28;20057;-75
2023/10/09 02:59:08;;;;;;;9.15;4.18;;;;;;;;;;5024256;28;20049;-76
2023/10/09 03:01:37;;;;;;;8.05;4.63;;;;;;;;;;5013325;28;20068;-75
2023/10/09 03:04:05;;;;;;;6.57;4.10;;;;;;;;;;5012927;28;20060;-76
2023/10/09 03:06:33;;;;;;;7.63;3.75;;;;;;;;;;5012924;28;20080;-76
2023/10/09 03:09:16;;;;;;;6.03;4.22;;;;;;;;;;5013212;28;20419;-75
2023/10/09 03:11:43;;;;;;;8.57;5.00;;;;;;;;;;5012928;28;20050;-75
2023/10/09 03:14:10;;;;;;;6.82;4.18;;;;;;;;;;5013059;28;20404;-76
2023/10/09 03:16:38;;;;;;;7.85;4.50;;;;;;;;;;5012586;28;20076;-76
2023/10/09 03:19:04;;;;;;;13.32;4.57;;;;;;;;;;5012818;28;20058;-76
2023/10/09 03:21:31;;;;;;;5.90;3.83;;;;;;;;;;5012755;28;20057;-76
2023/10/09 03:24:04;;;;;;;7.85;4.28;;;;;;;;;;5013296;28;20053;-75
2023/10/09 03:26:32;;;;;;;6.40;4.10;;;;;;;;;;5012942;28;20058;-76
2023/10/09 03:29:01;;;;;;;7.00;3.83;;;;;;;;;;5017285;28;20388;-76
2023/10/09 03:31:29;;;;;;;6.50;4.05;;;;;;;;;;5026916;28;20410;-77
2023/10/09 03:33:55;;;;;;;7.38;3.75;;;;;;;;;;5015148;28;20057;-76
2023/10/09 03:36:26;;;;;;;6.65;3.83;;;;;;;;;;5033073;28;20061;-76
2023/10/09 03:38:54;;;;;;;7.03;3.95;;;;;;;;;;5033265;28;20057;-76
2023/10/09 03:41:21;;;;;;;7.93;3.78;;;;;;;;;;5033256;28;20065;-76
2023/10/09 03:43:50;;;;;;;7.57;3.83;;;;;;;;;;5030287;28;20432;-76
2023/10/09 03:46:22;;;;;;;7.90;4.38;;;;;;;;;;5033443;28;20052;-76
2023/10/09 03:48:49;;;;;;;7.28;4.05;;;;;;;;;;5033813;28;20501;-76
2023/10/09 03:51:21;;;;;;;7.47;4.43;;;;;;;;;;5035412;28;20448;-77
2023/10/09 03:53:47;;;;;;;20.40;4.72;;;;;;;;;;5037798;28;20049;-76
2023/10/09 03:56:15;;;;;;;7.57;4.05;;;;;;;;;;5037892;28;20053;-76
2023/10/09 03:58:44;;;;;;;8.15;4.50;;;;;;;;;;5030154;28;20057;-76
2023/10/09 04:01:22;;;;;;;9.55;4.32;;;;;;;;;;5018104;28;20054;-76
2023/10/09 04:03:48;;;;;;;8.02;4.22;;;;;;;;;;5018498;28;20062;-76
2023/10/09 04:06:17;;;;;;;7.45;3.92;;;;;;;;;;5018330;28;20057;-76
2023/10/09 04:08:48;;;;;;;8.30;3.53;;;;;;;;;;5021221;28;20053;-76
2023/10/09 04:11:22;;;;;;;8.75;4.35;;;;;;;;;;5020475;28;20057;-76
2023/10/09 04:13:49;;;;;;;9.38;3.72;;;;;;;;;;5019332;28;20053;-76
2023/10/09 04:19:06;;;;;;;8.40;4.28;;;;;;;;;;5018464;28;20062;-77
2023/10/09 04:21:35;;;;;;;8.35;4.72;;;;;;;;;;5028519;28;20060;-76
2023/10/09 04:24:22;;;;;;;7.43;4.50;;;;;;;;;;5038863;28;20060;-76
2023/10/09 04:26:55;;;;;;;6.18;3.80;;;;;;;;;;5021105;28;20064;-77
2023/10/09 04:29:26;;;;;;;12.93;3.83;;;;;;;;;;5035519;28;20037;-78
2023/10/09 04:31:55;;;;;;;9.20;4.32;;;;;;;;;;5051903;28;20057;-77
2023/10/09 04:34:28;;;;;;;6.32;3.88;;;;;;;;;;5041824;28;20050;-78
2023/10/09 04:36:57;;;;;;;7.28;3.63;;;;;;;;;;5049541;28;20054;-76
2023/10/09 04:39:37;;;;;;;8.75;4.38;;;;;;;;;;5053669;28;20026;-77
2023/10/09 04:47:38;;;;;;;6.97;4.13;;;;;;;;;;5045553;28;20042;-77
2023/10/09 04:50:11;;;;;;;6.47;3.60;;;;;;;;;;5039398;28;20053;-77
2023/10/09 04:52:52;;;;;;;8.02;3.70;;;;;;;;;;5038892;28;20061;-77
2023/10/09 04:55:24;;;;;;;6.00;3.10;;;;;;;;;;5038400;28;20050;-77
2023/10/09 04:58:08;;;;;;;6.05;3.38;;;;;;;;;;5023051;28;20038;-77
2023/10/09 05:03:28;;;;;;;7.43;3.45;;;;;;;;;;5028092;28;20030;-77
2023/10/09 05:06:20;;;;;;;7.25;3.72;;;;;;;;;;5038001;28;20048;-77
2023/10/09 05:08:47;;;;;;;5.72;3.50;;;;;;;;;;5038751;28;20060;-77
2023/10/09 05:11:15;;;;;;;8.15;4.45;;;;;;;;;;5018192;28;20054;-77
2023/10/09 05:13:57;;;;;;;5.28;3.22;;;;;;;;;;5039174;28;20041;-76
2023/10/09 05:16:26;;;;;;;6.00;3.13;;;;;;;;;;5036032;28;20044;-77
2023/10/09 05:18:55;;;;;;;5.70;3.63;;;;;;;;;;5037898;28;20044;-76
2023/10/09 05:21:44;;;;;;;12.32;4.13;;;;;;;;;;5036495;28;20062;-78
2023/10/09 05:24:18;;;;;;;5.60;2.80;;;;;;;;;;5052314;28;20041;-77
2023/10/09 05:26:51;;;;;;;6.82;3.40;;;;;;;;;;5036491;28;20468;-76
2023/10/09 05:29:19;;;;;;;5.38;3.25;;;;;;;;;;5020489;28;20054;-76
2023/10/09 05:31:56;;;;;;;6.22;3.72;;;;;;;;;;5016365;28;20495;-76
2023/10/09 05:34:33;;;;;;;7.78;3.63;;;;;;;;;;5016297;28;20054;-76
2023/10/09 05:37:16;;;;;;;5.05;2.95;;;;;;;;;;5020299;28;20045;-76
2023/10/09 05:39:57;;;;;;;5.50;3.35;;;;;;;;;;5035992;28;20533;-77
2023/10/09 05:42:28;;;;;;;6.72;3.35;;;;;;;;;;5036208;28;20053;-76
2023/10/09 05:47:47;;;;;;;6.72;3.65;;;;;;;;;;5031256;28;20056;-76
2023/10/09 05:50:34;;;;;;;7.20;3.75;;;;;;;;;;5022561;28;20479;-77
2023/10/09 05:53:26;;;;;;;6.15;3.28;;;;;;;;;;5015096;28;20058;-77
2023/10/09 06:04:15;;;;;;;5.78;3.38;;;;;;;;;;5019467;28;20041;-77
2023/10/09 06:06:44;;;;;;;4.68;3.03;;;;;;;;;;5018137;28;20061;-76
2023/10/09 06:12:33;;;;;;;6.80;3.47;;;;;;;;;;5018850;28;20046;-78
2023/10/09 06:14:57;;;;;;;6.63;3.67;;;;;;;;;;5015180;28;21335;-80
2023/10/09 06:17:27;;;;;;;5.90;3.50;;;;;;;;;;5026918;28;20053;-81
2023/10/09 06:20:25;;;;;;;6.57;3.70;;;;;;;;;;5027112;28;20064;-80
2023/10/09 06:22:56;;;;;;;6.30;3.53;;;;;;;;;;5026605;28;20077;-80
2023/10/09 06:25:32;;;;;;;7.30;3.38;;;;;;;;;;5026635;28;20042;-81
2023/10/09 06:27:59;;;;;;;6.07;3.40;;;;;;;;;;5022601;28;20053;-79
2023/10/09 06:30:26;;;;;;;12.48;4.00;;;;;;;;;;5027282;28;20123;-80
2023/10/09 06:33:04;;;;;;;8.77;4.28;;;;;;;;;;5026744;28;20053;-80
2023/10/09 06:35:35;;;;;;;9.00;3.83;;;;;;;;;;5026005;28;20418;-82
2023/10/09 06:38:22;;;;;;;6.22;3.47;;;;;;;;;;5027799;28;20049;-80
2023/10/09 06:43:31;;;;;;;13.23;4.57;;;;;;;;;;5016122;28;20056;-80
2023/10/09 06:46:37;;;;;;;6.25;2.97;;;;;;;;;;5028511;28;20516;-79
2023/10/09 06:48:55;;;;;;;9.52;4.07;;;;;;;;;;5028799;28;20069;-79
2023/10/09 06:51:40;;;;;;;18.02;3.75;;;;;;;;;;5027362;28;20513;-79
2023/10/09 06:54:18;;;;;;;9.70;4.28;;;;;;;;;;5025805;28;20061;-81
2023/10/09 06:59:41;;;;;;;6.47;3.80;;;;;;;;;;5030157;28;20049;-79
2023/10/09 07:02:25;;;;;;;7.65;3.95;;;;;;;;;;5028591;28;20053;-79
2023/10/09 07:04:54;;;;;;;8.60;4.18;;;;;;;;;;5026807;28;20128;-78
2023/10/09 07:07:20;;;;;;;;;;;;;;;;;;5029543;28;20049;-79
2023/10/09 07:12:32;;;;;;;7.30;4.57;;;;;;;;;;5025242;28;20053;-78
2023/10/09 07:15:39;;;;;;;5.68;3.60;;;;;;;;;;5029788;28;20072;-78
2023/10/09 07:17:52;;;;;;;6.97;3.38;;;;;;;;;;5029007;28;20061;-79
2023/10/09 07:20:36;;;;;;;;;;;;;;;;;;5027714;28;20395;-77
2023/10/09 07:23:14;;;;;;;7.88;4.47;;;;;;;;;;5026962;28;19944;-76
2023/10/09 07:25:54;;;;;;;6.03;3.72;;;;;;;;;;5025335;28;20425;-77
2023/10/09 07:28:42;;;;;;;6.45;3.78;;;;;;;;;;5021827;28;20076;-77
2023/10/09 07:31:23;;;;;;;7.82;4.07;;;;;;;;;;5028300;28;20053;-77
2023/10/09 07:34:30;;;;;;;7.72;4.15;;;;;;;;;;5024028;28;20069;-77
2023/10/09 07:36:49;;;;;;;11.95;4.57;;;;;;;;;;5025087;28;20068;-78
2023/10/09 07:39:17;;;;;;;11.27;4.22;;;;;;;;;;5026367;28;20065;-79
2023/10/09 07:41:56;;;;;;;7.57;4.28;;;;;;;;;;5028253;28;20164;-79
2023/10/09 07:44:36;;;;;;;7.70;3.63;;;;;;;;;;5026735;28;20052;-81
2023/10/09 07:47:19;;;;;;;9.55;4.25;;;;;;;;;;5024172;28;20491;-78
2023/10/09 07:49:53;;;;;;;5.30;3.15;;;;;;;;;;5027471;28;20792;-80
2023/10/09 07:52:21;;;;;;;8.35;4.03;;;;;;;;;;5022638;28;20491;-80
2023/10/09 07:54:52;;;;;;;8.57;4.43;;;;;;;;;;5020843;28;20057;-80
2023/10/09 07:57:28;;;;;;;10.68;4.50;;;;;;;;;;5026305;28;20049;-77
2023/10/09 08:00:00;;;;;;;8.30;3.60;;;;;;;;;;5026693;28;20069;-80
2023/10/09 08:02:32;;;;;;;6.68;3.88;;;;;;;;;;5030950;28;20054;-80
2023/10/09 08:05:04;;;;;;;9.23;3.67;;;;;;;;;;5027558;28;20053;-78
2023/10/09 08:07:37;;;;;;;7.03;4.70;;;;;;;;;;5028528;28;20052;-77
2023/10/09 08:12:58;;;;;;;5.55;3.95;;;;;;;;;;5022882;28;20045;-80
2023/10/09 08:15:34;;;;;;;7.28;3.75;;;;;;;;;;5023558;28;20060;-79
2023/10/09 08:18:09;;;;;;;7.45;4.00;;;;;;;;;;5033038;28;20057;-79
2023/10/09 08:20:51;;;;;;;6.18;4.03;;;;;;;;;;5011837;28;20058;-79
2023/10/09 08:23:28;;;;;;;9.40;4.95;;;;;;;;;;5008152;28;20056;-79
2023/10/09 08:26:12;;;;;;;7.85;4.00;;;;;;;;;;5004184;28;20061;-79
2023/10/09 08:28:39;;;;;;;7.85;4.55;;;;;;;;;;5003226;28;20082;-77
2023/10/09 08:31:18;;;;;;;7.95;3.80;;;;;;;;;;5007773;28;20050;-79
2023/10/09 08:33:45;;;;;;;8.48;3.88;;;;;;;;;;5007277;28;20068;-78
2023/10/09 08:36:14;;;;;;;7.55;4.15;;;;;;;;;;5007247;28;20046;-78
2023/10/09 08:38:44;;;;;;;8.20;4.25;;;;;;;;;;5008330;28;20049;-80
2023/10/09 08:41:18;;;;;;;6.53;3.63;;;;;;;;;;5010555;28;20050;-80
2023/10/09 08:43:50;;;;;;;8.18;4.45;;;;;;;;;;5009916;28;20072;-77
2023/10/09 08:46:18;;;;;;;8.57;4.20;;;;;;;;;;5012802;28;20057;-79
2023/10/09 08:48:45;;;;;;;6.30;4.00;;;;;;;;;;5012898;28;20774;-79
2023/10/09 08:51:14;;;;;;;5.45;3.42;;;;;;;;;;5012706;28;20053;-79
2023/10/09 08:53:43;;;;;;;6.13;3.20;;;;;;;;;;5006536;28;20062;-79
2023/10/09 08:56:10;;;;;;;8.63;4.43;;;;;;;;;;5010285;28;20060;-80
2023/10/09 08:58:38;;;;;;;8.43;4.20;;;;;;;;;;5011065;28;20057;-79
2023/10/09 09:01:06;;;;;;;5.53;3.95;;;;;;;;;;5004294;28;20054;-79
2023/10/09 09:03:40;;;;;;;6.45;3.90;;;;;;;;;;5008871;28;20053;-78
2023/10/09 09:06:07;;;;;;;6.70;4.28;;;;;;;;;;5012604;28;20050;-80
2023/10/09 09:08:36;;;;;;;7.75;4.00;;;;;;;;;;5008533;28;20054;-78
2023/10/09 09:11:11;;;;;;;6.57;4.45;;;;;;;;;;5008753;28;20111;-78
2023/10/09 09:13:41;;;;;;;7.82;3.80;;;;;;;;;;5006299;28;20053;-77
2023/10/09 09:16:16;;;;;;;7.35;4.18;;;;;;;;;;5011330;28;20054;-82
2023/10/09 09:18:51;;;;;;;7.88;4.30;;;;;;;;;;5010296;28;20057;-78
2023/10/09 09:21:22;;;;;;;7.57;4.68;;;;;;;;;;5009762;28;20418;-82
2023/10/09 09:23:56;;;;;;;9.68;5.00;;;;;;;;;;5008107;28;20503;-77
2023/10/09 09:26:44;;;;;;;8.50;5.13;;;;;;;;;;5005333;28;20057;-78
2023/10/09 09:29:11;;;;;;;6.57;3.72;;;;;;;;;;5010488;28;20053;-78
2023/10/09 09:31:52;;;;;;;6.60;3.75;;;;;;;;;;5002325;28;20051;-75
2023/10/09 09:34:25;;;;;;;6.03;2.95;;;;;;;;;;5008890;28;20056;-76
2023/10/09 09:36:54;;;;;;;8.23;4.25;;;;;;;;;;5006972;28;20050;-79
2023/10/09 09:39:28;;;;;;;7.63;4.45;;;;;;;;;;5008666;28;20069;-80
2023/10/09 09:41:57;;;;;;;8.82;3.50;;;;;;;;;;5007939;28;20053;-81
2023/10/09 09:44:26;;;;;;;5.00;3.15;;;;;;;;;;5009125;28;20049;-81
2023/10/09 09:46:57;;;;;;;6.97;3.50;;;;;;;;;;5007233;28;20057;-79
2023/10/09 09:49:24;;;;;;;5.60;2.58;;;;;;;;;;5005785;28;20496;-82
2023/10/09 09:51:51;;;;;;;7.80;2.67;;;;;;;;;;5008411;28;20057;-77
2023/10/09 09:54:22;;;;;;;7.25;3.75;;;;;;;;;;5010202;28;20049;-81
2023/10/09 09:56:52;;;;;;;5.82;2.58;;;;;;;;;;5006719;28;20054;-81
2023/10/09 09:59:22;;;;;;;7.32;3.30;;;;;;;;;;5008217;28;20050;-81
2023/10/09 10:01:56;;;;;;;7.05;2.88;;;;;;;;;;5009623;28;20057;-80
2023/10/09 10:04:26;;;;;;;5.03;3.13;;;;;;;;;;5007713;28;20053;-79
2023/10/09 10:06:54;;;;;;;5.65;2.42;;;;;;;;;;5011411;28;20046;-80
2023/10/09 10:09:41;;;;;;;10.50;3.97;;;;;;;;;;5012315;28;20056;-78
2023/10/09 10:12:10;;;;;;;6.97;3.72;;;;;;;;;;5009825;28;20065;-77
2023/10/09 10:14:53;;;;;;;5.47;3.42;;;;;;;;;;5006972;28;20068;-74
2023/10/09 10:17:21;;;;;;;5.50;3.22;;;;;;;;;;5008223;28;20388;-75
2023/10/09 10:20:25;;;;;;;5.95;3.13;;;;;;;;;;5024067;28;20080;-79
2023/10/09 10:22:50;;;;;;;6.15;2.78;;;;;;;;;;5028128;28;20410;-76
2023/10/09 10:25:35;;;;;;;7.95;2.90;;;;;;;;;;5027137;28;20050;-76
2023/10/09 10:28:38;;;;;;;6.07;3.10;;;;;;;;;;5027368;28;20076;-77
2023/10/09 10:31:07;;;;;;;4.68;3.38;;;;;;;;;;5022597;28;20482;-76
2023/10/09 10:33:53;;;;;;;6.28;3.55;;;;;;;;;;5028842;28;20061;-76
2023/10/09 10:36:22;;;;;;;4.72;3.33;;;;;;;;;;5025986;28;20065;-76
2023/10/09 10:38:49;;;;;;;;;;;;;;;;;;5029360;28;20494;-75
2023/10/09 10:41:16;;;;;;;4.75;2.83;;;;;;;;;;5028055;28;19936;-77
2023/10/09 10:43:54;;;;;;;5.75;2.95;;;;;;;;;;5026799;28;20060;-75
2023/10/09 10:46:30;;;;;;;6.15;3.38;;;;;;;;;;5026303;28;20049;-75
2023/10/09 10:49:10;;;;;;;6.75;3.42;;;;;;;;;;5023691;28;20060;-75
2023/10/09 10:51:47;;;;;;;6.78;3.22;;;;;;;;;;5027033;28;20538;-85
2023/10/09 10:57:19;;;;;;;5.68;3.78;;;;;;;;;;5028469;28;20383;-78
2023/10/09 10:59:49;;;;;;;6.55;3.90;;;;;;;;;;5028898;28;20065;-78
2023/10/09 11:02:22;;;;;;;6.53;3.40;;;;;;;;;;5029088;28;20049;-77
2023/10/09 11:04:53;;;;;;;4.50;2.78;;;;;;;;;;5027747;28;20083;-78
2023/10/09 11:07:26;;;;;;;7.22;2.92;;;;;;;;;;5028020;28;20505;-77
2023/10/09 11:10:14;;;;;;;6.32;2.92;;;;;;;;;;5026327;28;20498;-79
2023/10/09 11:13:11;;;;;;;11.45;3.95;;;;;;;;;;5027751;28;20060;-78
2023/10/09 11:15:44;;;;;;;5.93;3.85;;;;;;;;;;5024179;28;20053;-78
2023/10/09 11:18:16;;;;;;;6.65;3.72;;;;;;;;;;5024052;28;20042;-76
2023/10/09 11:21:22;;;;;;;5.40;3.85;;;;;;;;;;5028615;28;20062;-76
2023/10/09 11:23:38;;;;;;;7.38;3.55;;;;;;;;;;5027750;28;20053;-77
2023/10/09 11:26:21;;;;;;;8.20;4.15;;;;;;;;;;5027362;28;20113;-77
2023/10/09 11:28:56;;;;;;;6.00;3.28;;;;;;;;;;5034435;28;20061;-76
2023/10/09 11:31:23;;;;;;;7.80;3.35;;;;;;;;;;5026970;28;20050;-78
2023/10/09 11:33:51;;;;;;;6.30;3.20;;;;;;;;;;5029127;28;20056;-78
2023/10/09 11:36:21;;;;;;;4.77;3.07;;;;;;;;;;5029462;28;20056;-78
2023/10/09 11:38:51;;;;;;;5.43;3.35;;;;;;;;;;5030048;28;20049;-82
2023/10/09 11:41:19;;;;;;;6.10;3.72;;;;;;;;;;5030914;28;20144;-79
2023/10/09 11:43:54;;;;;;;5.72;3.72;;;;;;;;;;5031014;28;20518;-83
2023/10/09 11:49:25;;;;;;;10.65;3.60;;;;;;;;;;4992987;28;20049;-77
2023/10/09 11:52:33;;;;;;;5.43;3.38;;;;;;;;;;5025871;28;20050;-75
2023/10/09 11:54:56;;;;;;;8.93;3.58;;;;;;;;;;5022703;28;20056;-76
2023/10/09 11:57:30;;;;;;;5.15;3.28;;;;;;;;;;5027538;28;20402;-77
2023/10/09 11:59:57;;;;;;;4.78;2.75;;;;;;;;;;5023045;28;20418;-76
2023/10/09 12:02:24;;;;;;;9.43;3.38;;;;;;;;;;5004869;28;20049;-76
2023/10/09 12:04:51;;;;;;;5.97;3.33;;;;;;;;;;5027656;28;20053;-75
2023/10/09 12:07:20;;;;;;;7.13;4.10;;;;;;;;;;5025547;28;20064;-76
2023/10/09 12:09:49;;;;;;;5.40;3.53;;;;;;;;;;5023001;28;20061;-76
2023/10/09 12:12:18;;;;;;;6.97;3.08;;;;;;;;;;5027933;28;20065;-76
2023/10/09 12:14:45;;;;;;;7.00;3.60;;;;;;;;;;5028526;28;20053;-78
2023/10/09 12:17:12;;;;;;;6.07;3.58;;;;;;;;;;5030247;28;20076;-78
2023/10/09 12:19:39;;;;;;;7.65;3.38;;;;;;;;;;5031761;28;20070;-78
2023/10/09 12:22:10;;;;;;;11.55;3.80;;;;;;;;;;5032287;28;20045;-78
2023/10/09 12:24:37;;;;;;;4.60;3.15;;;;;;;;;;5029132;28;20410;-78
2023/10/09 12:27:09;;;;;;;10.27;4.32;;;;;;;;;;5029330;28;20049;-79
2023/10/09 12:29:37;;;;;;;7.32;4.20;;;;;;;;;;5028982;28;20513;-77
2023/10/09 12:32:10;;;;;;;6.97;4.23;;;;;;;;;;5027413;28;20053;-78
2023/10/09 12:34:38;;;;;;;9.32;4.00;;;;;;;;;;5029726;28;20049;-78
2023/10/09 12:37:06;;;;;;;9.35;3.40;;;;;;;;;;5031848;28;20058;-78
2023/10/09 12:39:34;;;;;;;5.70;3.03;;;;;;;;;;5026445;28;20079;-77
2023/10/09 12:42:06;;;;;;;5.07;3.78;;;;;;;;;;5029518;28;20486;-79
2023/10/09 12:44:34;;;;;;;6.30;3.80;;;;;;;;;;5029746;28;20064;-78
2023/10/09 12:47:04;;;;;;;9.48;3.97;;;;;;;;;;5029374;28;20058;-78
2023/10/09 12:49:31;;;;;;;6.22;3.67;;;;;;;;;;5029429;28;20053;-77
2023/10/09 12:51:58;;;;;;;4.95;3.25;;;;;;;;;;5030278;28;20050;-81
2023/10/09 12:54:26;;;;;;;6.00;3.95;;;;;;;;;;5032121;28;20406;-82
2023/10/09 12:56:55;;;;;;;5.73;3.33;;;;;;;;;;5031457;28;20053;-82
2023/10/09 12:59:23;;;;;;;7.88;4.28;;;;;;;;;;5025592;28;20480;-78
2023/10/09 13:01:52;;;;;;;7.13;3.70;;;;;;;;;;5028491;28;20057;-78
2023/10/09 13:04:21;;;;;;;;;;;;;;;;;;5028802;28;20049;-75
2023/10/09 13:06:51;;;;;;;;;;;;;;;;;;5025520;28;20417;-78
2023/10/09 13:09:24;;;;;;;;;;;;;;;;;;5028673;28;19921;-80
2023/10/09 13:11:51;;;;;;;;;;;;;;;;;;5032059;28;19928;-77
2023/10/09 13:14:21;;;;;;;;;;;;;;;;;;5029179;28;19921;-79
2023/10/09 13:16:50;;;;;;;;;;;;;;;;;;5026076;28;19929;-76
2023/10/09 13:19:17;;;;;;;;;;;;;;;;;;5030929;28;19936;-78
2023/10/09 13:21:44;;;;;;;;;;;;;;;;;;5030311;28;19940;-76
2023/10/09 13:24:15;;;;;;;;;;;;;;;;;;5032103;28;19921;-80
2023/10/09 13:26:44;;;;;;;;;;;;;;;;;;5028582;28;20388;-80
2023/10/09 13:29:11;;;;;;;;;;;;;;;;;;5029472;28;19937;-80
2023/10/09 13:31:46;;;;;;;;;;;;;;;;;;5025449;28;19921;-80
2023/10/09 13:34:15;;;;;;;;;;;;;;;;;;5029703;28;19944;-80
2023/10/09 13:36:49;;;;;;;;;;;;;;;;;;5027433;28;19929;-79
2023/10/09 13:39:24;;;;;;;;;;;;;;;;;;5030867;28;19939;-80
2023/10/09 13:41:50;;;;;;;;;;;;;;;;;;5031434;28;19925;-80
2023/10/09 13:44:17;;;;;;;;;;;;;;;;;;5029335;28;19932;-80
2023/10/09 13:46:44;;;;;;;;;;;;;;;;;;5026080;28;19940;-77
2023/10/09 13:49:12;;;;;;;;;;;;;;;;;;5029208;28;19947;-78
2023/10/09 13:51:43;;;;;;;;;;;;;;;;;;5028781;28;19932;-77
2023/10/09 13:54:09;;;;;;;;;;;;;;;;;;5025580;28;20436;-79
2023/10/09 13:56:38;;;;;;;;;;;;;;;;;;5031414;28;19925;-79
2023/10/09 13:59:10;;;;;;;;;;;;;;;;;;5028273;28;19921;-79
2023/10/09 14:01:38;;;;;;;;;;;;;;;;;;5025132;28;19922;-78
2023/10/09 14:04:06;;;;;;;;;;;;;;;;;;5023642;28;19921;-78
2023/10/09 14:06:32;;;;;;;;;;;;;;;;;;5023604;28;19921;-79
2023/10/09 14:08:59;;;;;;;;;;;;;;;;;;5028178;28;19921;-79
2023/10/09 14:11:25;;;;;;;;;;;;;;;;;;5029651;28;19921;-79
2023/10/09 14:13:52;;;;;;;;;;;;;;;;;;5030259;28;19928;-79
2023/10/09 14:16:27;;;;;;;;;;;;;;;;;;5027853;28;19921;-78
2023/10/09 14:18:56;;;;;;;;;;;;;;;;;;5025422;28;19921;-79
2023/10/09 14:21:25;;;;;;;;;;;;;;;;;;5029167;28;19928;-80
2023/10/09 14:23:55;;;;;;;;;;;;;;;;;;5027488;28;19932;-78
2023/10/09 14:26:22;;;;;;;;;;;;;;;;;;5026295;28;20483;-77
2023/10/09 14:28:48;;;;;;;;;;;;;;;;;;5024394;28;19929;-77
2023/10/09 14:31:20;;;;;;;;;;;;;;;;;;5028621;28;19929;-78
2023/10/09 14:33:51;;;;;;;;;;;;;;;;;;5028572;28;19932;-78
2023/10/09 14:36:18;;;;;;;;;;;;;;;;;;5028873;28;20350;-78
2023/10/09 14:38:47;;;;;;;;;;;;;;;;;;5025797;28;19924;-78
2023/10/09 14:41:15;;;;;;;;;;;;;;;;;;5026769;28;20380;-78
2023/10/09 14:43:42;;;;;;;;;;;;;;;;;;5026868;28;19921;-78
2023/10/09 14:46:11;;;;;;;;;;;;;;;;;;5027898;28;20370;-79
2023/10/09 14:48:38;;;;;;;;;;;;;;;;;;5027886;28;19921;-77
2023/10/09 14:51:06;;;;;;;;;;;;;;;;;;5031855;28;19921;-77
2023/10/09 14:53:34;;;;;;;;;;;;;;;;;;5028918;28;19928;-78
2023/10/09 14:56:01;;;;;;;;;;;;;;;;;;5014266;28;20420;-79
2023/10/09 14:58:29;;;;;;;;;;;;;;;;;;5013923;28;19921;-77
2023/10/09 15:00:55;;;;;;;;;;;;;;;;;;5015313;28;19929;-79
2023/10/09 15:03:22;;;;;;;;;;;;;;;;;;5022463;28;19951;-81
2023/10/09 15:05:49;;;;;;;;;;;;;;;;;;5032345;28;19928;-81
2023/10/09 15:08:15;;;;;;;;;;;;;;;;;;5032626;28;20404;-76
2023/10/09 15:10:42;;;;;;;;;;;;;;;;;;5013547;28;20282;-78
2023/10/09 15:13:08;;;;;;;;;;;;;;;;;;5023312;28;20310;-77
2023/10/09 15:15:35;;;;;;;;;;;;;;;;;;5023619;28;19921;-77
2023/10/09 15:18:03;;;;;;;;;;;;;;;;;;5027092;28;19952;-77
2023/10/09 15:20:29;;;;;;;;;;;;;;;;;;5013040;28;19997;-77
2023/10/09 15:22:56;;;;;;;;;;;;;;;;;;5032780;28;19921;-76
2023/10/09 15:25:23;;;;;;;;;;;;;;;;;;5016692;28;19928;-77
2023/10/09 15:27:50;;;;;;;;;;;;;;;;;;5013493;28;19928;-77
2023/10/09 15:30:16;;;;;;;;;;;;;;;;;;5018938;28;19928;-77
2023/10/09 15:32:43;;;;;;;;;;;;;;;;;;5031292;28;19921;-81
2023/10/09 15:35:12;;;;;;;;;;;;;;;;;;5013505;28;19929;-80
2023/10/09 15:37:40;;;;;;;;;;;;;;;;;;5030338;28;19943;-75
2023/10/09 15:40:13;;;;;;;;;;;;;;;;;;5020908;28;19940;-77
2023/10/09 15:42:40;;;;;;;;;;;;;;;;;;5013268;28;20301;-78
2023/10/09 15:45:07;;;;;;;;;;;;;;;;;;5016025;28;20320;-78
2023/10/09 15:47:36;;;;;;;;;;;;;;;;;;5035378;28;19921;-78
2023/10/09 15:50:02;;;;;;;;;;;;;;;;;;5015737;28;20297;-78
2023/10/09 15:52:29;;;;;;;;;;;;;;;;;;5016260;28;19921;-78
2023/10/09 15:54:56;;;;;;;;;;;;;;;;;;5025535;28;19932;-78
2023/10/09 15:57:22;;;;;;;;;;;;;;;;;;5033699;28;20016;-80
2023/10/09 15:59:50;;;;;;;;;;;;;;;;;;5035504;28;20020;-79
2023/10/09 16:02:16;;;;;;;;;;;;;;;;;;5016828;28;19940;-78
2023/10/09 16:04:44;;;;;;;;;;;;;;;;;;5031807;28;19921;-78
2023/10/09 16:07:11;;;;;;;;;;;;;;;;;;5035608;28;19925;-78
2023/10/09 16:09:39;;;;;;;;;;;;;;;;;;5030824;28;19929;-78
2023/10/09 16:12:05;;;;;;;;;;;;;;;;;;5020441;28;19921;-80
2023/10/09 16:14:34;;;;;;;;;;;;;;;;;;5016882;28;19921;-79
2023/10/09 16:17:01;;;;;;;;;;;;;;;;;;5031761;28;19921;-79
2023/10/09 16:19:32;;;;;;;;;;;;;;;;;;5035381;28;19928;-80